createdAt,value
2019-04-30T00:00:46.652Z,4.62
2019-04-30T00:02:59.780Z,5.22
2019-04-30T00:05:02.142Z,7.60
2019-04-30T00:09:17.419Z,4.53
2019-04-30T00:11:19.966Z,6.95
2019-04-30T00:13:25.886Z,7.55
2019-04-30T00:15:28.290Z,6.97
2019-04-30T00:17:30.664Z,5.53
2019-04-30T00:21:36.150Z,6.60
2019-04-30T00:23:38.765Z,6.75
2019-04-30T00:25:41.264Z,9.43
2019-04-30T00:29:45.831Z,7.78
2019-04-30T00:31:48.269Z,10.23
2019-04-30T00:33:52.648Z,9.70
2019-04-30T00:35:57.973Z,6.40
2019-04-30T00:38:00.283Z,9.58
2019-04-30T00:40:05.482Z,6.72
2019-04-30T00:42:07.571Z,9.75
2019-04-30T00:44:09.915Z,7.85
2019-04-30T00:48:19.780Z,8.13
2019-04-30T00:50:18.488Z,8.65
2019-04-30T00:54:27.926Z,7.90
2019-04-30T00:56:28.316Z,6.35
2019-04-30T00:58:31.800Z,8.03
2019-04-30T01:00:43.261Z,7.50
2019-04-30T01:03:00.976Z,7.75
2019-04-30T01:05:05.300Z,7.67
2019-04-30T01:07:08.651Z,6.72
2019-04-30T01:09:10.696Z,11.00
2019-04-30T01:11:15.342Z,8.50
2019-04-30T01:13:19.190Z,7.87
2019-04-30T01:15:21.955Z,10.55
2019-04-30T01:17:24.477Z,7.37
2019-04-30T01:19:32.155Z,8.95
2019-04-30T01:21:31.500Z,10.82
2019-04-30T01:23:33.886Z,9.30
2019-04-30T01:27:39.552Z,11.15
2019-04-30T01:29:44.346Z,9.38
2019-04-30T01:31:46.237Z,12.15
2019-04-30T01:33:49.502Z,10.15
2019-04-30T01:35:51.826Z,8.63
2019-04-30T01:37:54.198Z,9.08
2019-04-30T01:39:56.541Z,9.28
2019-04-30T01:42:02.672Z,9.60
2019-04-30T01:44:03.810Z,9.30
2019-04-30T01:46:12.299Z,11.45
2019-04-30T01:48:12.680Z,10.38
2019-04-30T01:50:15.543Z,10.85
2019-04-30T01:52:19.402Z,10.60
2019-04-30T01:54:24.381Z,11.63
2019-04-30T01:56:43.396Z,11.68
2019-04-30T01:58:55.016Z,16.97
2019-04-30T02:01:00.511Z,18.07
2019-04-30T02:03:03.899Z,15.40
2019-04-30T02:05:06.546Z,16.73
2019-04-30T02:07:09.055Z,15.45
2019-04-30T02:09:11.518Z,18.82
2019-04-30T02:13:15.630Z,21.15
2019-04-30T02:17:21.529Z,20.08
2019-04-30T02:19:23.914Z,17.70
2019-04-30T02:21:26.096Z,16.90
2019-04-30T02:23:29.671Z,23.18
2019-04-30T02:25:32.222Z,20.35
2019-04-30T02:27:34.375Z,16.73
2019-04-30T02:29:36.546Z,20.70
2019-04-30T02:31:40.749Z,19.17
2019-04-30T02:33:45.960Z,17.25
2019-04-30T02:36:10.889Z,16.85
2019-04-30T02:38:20.364Z,20.25
2019-04-30T02:40:22.837Z,19.65
2019-04-30T02:42:26.046Z,19.75
2019-04-30T02:44:29.374Z,16.85
2019-04-30T02:46:32.694Z,18.75
2019-04-30T02:48:39.495Z,21.12
2019-04-30T02:50:42.532Z,16.97
2019-04-30T02:52:45.450Z,18.77
2019-04-30T02:54:50.834Z,20.12
2019-04-30T02:57:02.415Z,22.55
2019-04-30T02:59:04.579Z,16.93
2019-04-30T03:01:06.687Z,15.68
2019-04-30T03:03:10.264Z,16.27
2019-04-30T03:05:13.708Z,17.75
2019-04-30T03:07:16.039Z,15.95
2019-04-30T03:09:20.177Z,18.35
2019-04-30T03:11:21.914Z,16.60
2019-04-30T03:13:24.220Z,18.80
2019-04-30T03:15:26.187Z,16.30
2019-04-30T03:17:39.426Z,19.77
2019-04-30T03:19:50.212Z,19.65
2019-04-30T03:22:02.313Z,18.23
2019-04-30T03:24:05.652Z,17.73
2019-04-30T03:26:12.568Z,20.27
2019-04-30T03:28:13.685Z,21.77
2019-04-30T03:30:16.083Z,25.72
2019-04-30T03:32:22.540Z,20.62
2019-04-30T03:34:25.555Z,23.05
2019-04-30T03:36:25.926Z,23.62
2019-04-30T03:38:30.118Z,25.23
2019-04-30T03:40:31.988Z,24.63
2019-04-30T03:42:33.975Z,23.52
2019-04-30T03:44:35.971Z,26.15
2019-04-30T03:46:40.082Z,26.52
2019-04-30T03:48:42.364Z,21.73
2019-04-30T03:50:53.291Z,24.18
2019-04-30T03:52:50.326Z,27.02
2019-04-30T03:54:52.253Z,25.85
2019-04-30T03:56:56.559Z,27.60
2019-04-30T03:59:00.234Z,25.30
2019-04-30T04:01:25.129Z,26.17
2019-04-30T04:03:29.204Z,26.75
2019-04-30T04:05:42.399Z,27.58
2019-04-30T04:07:59.909Z,26.12
2019-04-30T04:10:14.263Z,27.40
2019-04-30T04:12:23.165Z,25.25
2019-04-30T04:14:25.260Z,24.60
2019-04-30T04:16:29.310Z,24.55
2019-04-30T04:18:31.569Z,22.55
2019-04-30T04:22:35.074Z,25.55
2019-04-30T04:24:37.089Z,27.17
2019-04-30T04:26:43.378Z,23.70
2019-04-30T04:28:43.653Z,23.47
2019-04-30T04:30:50.664Z,23.50
2019-04-30T04:32:53.346Z,24.63
2019-04-30T04:34:55.323Z,22.73
2019-04-30T04:36:59.992Z,32.80
2019-04-30T04:39:01.502Z,25.45
2019-04-30T04:41:05.383Z,26.27
2019-04-30T04:43:10.189Z,24.40
2019-04-30T04:45:11.279Z,24.77
2019-04-30T04:47:16.064Z,24.80
2019-04-30T04:49:20.031Z,31.30
2019-04-30T04:51:36.676Z,27.52
2019-04-30T04:53:25.596Z,27.62
2019-04-30T04:55:29.947Z,23.95
2019-04-30T04:57:31.493Z,25.70
2019-04-30T04:59:33.496Z,27.90
2019-04-30T05:01:35.780Z,28.12
2019-04-30T05:03:39.852Z,32.38
2019-04-30T05:05:42.475Z,30.30
2019-04-30T05:07:44.504Z,29.75
2019-04-30T05:09:46.589Z,27.37
2019-04-30T05:11:50.555Z,27.17
2019-04-30T05:13:52.583Z,30.35
2019-04-30T05:15:54.596Z,26.35
2019-04-30T05:17:59.253Z,29.32
2019-04-30T05:20:01.588Z,30.65
2019-04-30T05:22:03.876Z,28.35
2019-04-30T05:24:05.870Z,30.32
2019-04-30T05:26:08.463Z,30.92
2019-04-30T05:28:11.780Z,28.75
2019-04-30T05:30:13.865Z,25.02
2019-04-30T05:32:15.928Z,28.60
2019-04-30T05:34:18.853Z,29.63
2019-04-30T05:36:21.198Z,28.30
2019-04-30T05:38:23.619Z,31.77
2019-04-30T05:41:25.111Z,26.50
2019-04-30T05:43:28.845Z,28.83
2019-04-30T05:45:33.711Z,29.12
2019-04-30T05:47:36.045Z,29.37
2019-04-30T05:49:38.857Z,30.45
2019-04-30T05:51:52.869Z,26.80
2019-04-30T05:53:44.931Z,25.45
2019-04-30T05:55:47.143Z,28.65
2019-04-30T05:57:55.824Z,32.05
2019-04-30T05:59:53.016Z,33.88
2019-04-30T06:01:55.018Z,31.65
2019-04-30T06:03:57.287Z,29.40
2019-04-30T06:05:59.713Z,31.45
2019-04-30T06:08:01.693Z,32.33
2019-04-30T06:10:26.914Z,29.32
2019-04-30T06:12:39.162Z,35.98
2019-04-30T06:14:53.596Z,41.15
2019-04-30T06:17:09.934Z,52.08
2019-04-30T06:19:12.069Z,50.20
2019-04-30T06:21:14.243Z,53.83
2019-04-30T06:23:16.545Z,56.83
2019-04-30T06:25:30.480Z,55.35
2019-04-30T06:27:23.071Z,50.50
2019-04-30T06:29:25.044Z,51.28
2019-04-30T06:31:34.747Z,52.93
2019-04-30T06:33:31.113Z,51.98
2019-04-30T06:35:34.637Z,55.38
2019-04-30T06:37:38.719Z,55.15
2019-04-30T06:39:40.623Z,51.88
2019-04-30T06:41:42.864Z,45.52
2019-04-30T06:43:45.513Z,50.83
2019-04-30T06:45:51.219Z,48.95
2019-04-30T06:47:53.314Z,49.48
2019-04-30T06:51:58.783Z,46.85
2019-04-30T06:54:02.204Z,48.23
2019-04-30T06:56:04.359Z,45.38
2019-04-30T06:58:14.589Z,46.28
2019-04-30T07:00:11.296Z,46.13
2019-04-30T07:02:13.495Z,47.25
2019-04-30T07:04:15.461Z,48.38
2019-04-30T07:06:27.510Z,47.23
2019-04-30T07:08:46.931Z,46.02
2019-04-30T07:10:53.707Z,43.90
2019-04-30T07:13:00.156Z,43.58
2019-04-30T07:17:03.851Z,36.05
2019-04-30T07:19:06.097Z,35.68
2019-04-30T07:21:08.724Z,37.15
2019-04-30T07:23:10.849Z,28.45
2019-04-30T07:25:12.879Z,26.25
2019-04-30T07:27:14.859Z,30.52
2019-04-30T07:29:19.643Z,34.00
2019-04-30T07:31:22.319Z,38.83
2019-04-30T07:33:24.525Z,38.85
2019-04-30T07:35:29.117Z,43.02
2019-04-30T07:37:30.739Z,35.98
2019-04-30T07:39:33.598Z,33.65
2019-04-30T07:41:35.690Z,28.87
2019-04-30T07:43:39.259Z,28.12
2019-04-30T07:45:41.715Z,24.92
2019-04-30T07:47:43.739Z,25.20
2019-04-30T07:49:51.763Z,18.05
2019-04-30T07:51:51.710Z,23.00
2019-04-30T07:53:53.805Z,20.05
2019-04-30T07:55:56.343Z,21.00
2019-04-30T08:00:03.049Z,23.83
2019-04-30T08:02:13.677Z,22.62
2019-04-30T08:04:29.535Z,24.77
2019-04-30T08:06:31.837Z,27.00
2019-04-30T08:08:34.259Z,24.25
2019-04-30T08:12:42.465Z,24.80
2019-04-30T08:14:42.762Z,18.75
2019-04-30T08:16:45.054Z,20.05
2019-04-30T08:18:49.118Z,18.42
2019-04-30T08:20:51.000Z,20.97
2019-04-30T08:22:53.191Z,21.42
2019-04-30T08:24:55.170Z,19.12
2019-04-30T08:26:57.133Z,18.42
2019-04-30T08:28:59.945Z,20.08
2019-04-30T08:31:02.973Z,14.87
2019-04-30T08:33:05.109Z,14.45
2019-04-30T08:35:09.407Z,15.65
2019-04-30T08:37:17.059Z,16.23
2019-04-30T08:39:15.542Z,15.58
2019-04-30T08:41:19.295Z,15.85
2019-04-30T08:43:21.586Z,15.28
2019-04-30T08:45:23.739Z,17.27
2019-04-30T08:47:26.136Z,19.70
2019-04-30T08:49:30.531Z,16.35
2019-04-30T08:51:32.282Z,13.88
2019-04-30T08:53:34.989Z,16.90
2019-04-30T08:55:39.010Z,15.35
2019-04-30T08:57:43.992Z,16.87
2019-04-30T08:59:46.492Z,14.70
2019-04-30T09:03:51.443Z,16.65
2019-04-30T09:06:09.240Z,17.85
2019-04-30T09:08:11.910Z,22.22
2019-04-30T09:10:13.899Z,18.82
2019-04-30T09:12:16.374Z,20.20
2019-04-30T09:14:18.746Z,17.48
2019-04-30T09:18:25.027Z,16.82
2019-04-30T09:20:29.046Z,15.63
2019-04-30T09:22:31.140Z,15.25
2019-04-30T09:24:33.391Z,18.90
2019-04-30T09:26:35.377Z,18.37
2019-04-30T09:28:40.788Z,17.00
2019-04-30T09:30:41.689Z,18.77
2019-04-30T09:32:44.011Z,14.50
2019-04-30T09:34:46.022Z,16.65
2019-04-30T09:36:48.990Z,16.27
2019-04-30T09:38:51.122Z,12.73
2019-04-30T09:40:53.117Z,15.80
2019-04-30T09:42:55.592Z,18.65
2019-04-30T09:47:02.096Z,15.32
2019-04-30T09:49:05.269Z,15.32
2019-04-30T09:51:10.162Z,11.28
2019-04-30T09:53:11.778Z,15.30
2019-04-30T09:55:14.508Z,12.47
2019-04-30T09:57:16.561Z,15.43
2019-04-30T09:59:19.047Z,13.08
2019-04-30T10:03:24.885Z,15.13
2019-04-30T10:05:29.292Z,13.40
2019-04-30T10:07:31.799Z,13.53
2019-04-30T10:09:33.807Z,8.43
2019-04-30T10:11:43.641Z,10.53
2019-04-30T10:13:45.775Z,11.00
2019-04-30T10:16:13.198Z,12.30
2019-04-30T10:18:15.617Z,10.40
2019-04-30T10:20:24.039Z,14.33
2019-04-30T10:22:26.359Z,12.35
2019-04-30T10:24:29.484Z,7.87
2019-04-30T10:26:32.062Z,10.45
2019-04-30T10:28:37.690Z,11.00
2019-04-30T10:30:39.747Z,10.15
2019-04-30T10:32:41.911Z,13.05
2019-04-30T10:34:44.027Z,12.13
2019-04-30T10:36:46.078Z,14.00
2019-04-30T10:38:49.435Z,18.02
2019-04-30T10:40:51.525Z,11.35
2019-04-30T10:42:53.751Z,13.20
2019-04-30T10:44:55.927Z,10.53
2019-04-30T10:46:59.365Z,7.45
2019-04-30T10:49:01.500Z,13.55
2019-04-30T10:51:03.845Z,9.90
2019-04-30T10:53:06.203Z,11.65
2019-04-30T10:57:12.284Z,11.63
2019-04-30T10:59:14.265Z,17.65
2019-04-30T11:01:16.484Z,11.10
2019-04-30T11:03:22.449Z,6.42
2019-04-30T11:05:22.662Z,11.03
2019-04-30T11:07:24.754Z,12.80
2019-04-30T11:09:30.654Z,10.05
2019-04-30T11:11:32.284Z,7.10
2019-04-30T11:13:34.439Z,8.70
2019-04-30T11:15:36.589Z,9.78
2019-04-30T11:17:39.701Z,9.70
2019-04-30T11:19:42.364Z,8.85
2019-04-30T11:21:45.040Z,10.15
2019-04-30T11:23:49.244Z,10.38
2019-04-30T11:25:52.161Z,12.43
2019-04-30T11:27:55.441Z,10.75
2019-04-30T11:30:03.519Z,12.70
2019-04-30T11:32:10.599Z,10.08
2019-04-30T11:34:13.162Z,9.40
2019-04-30T11:36:15.152Z,10.35
2019-04-30T11:38:20.389Z,10.80
2019-04-30T11:40:34.405Z,8.55
2019-04-30T11:42:32.592Z,10.35
2019-04-30T11:47:10.186Z,11.22
2019-04-30T11:49:12.178Z,8.33
2019-04-30T11:51:14.241Z,9.00
2019-04-30T11:53:25.372Z,10.65
2019-04-30T11:55:20.648Z,11.50
2019-04-30T11:57:22.770Z,10.63
2019-04-30T11:59:25.118Z,9.83
2019-04-30T12:03:31.942Z,7.37
2019-04-30T12:05:33.984Z,7.78
2019-04-30T12:07:59.710Z,8.55
2019-04-30T12:10:16.546Z,10.30
2019-04-30T12:12:18.994Z,9.50
2019-04-30T12:16:22.900Z,8.08
2019-04-30T12:18:25.162Z,9.78
2019-04-30T12:20:27.209Z,9.03
2019-04-30T12:22:29.698Z,11.60
2019-04-30T12:24:31.853Z,10.72
2019-04-30T12:26:33.875Z,9.68
2019-04-30T12:28:35.991Z,10.08
2019-04-30T12:30:39.121Z,7.75
2019-04-30T12:32:41.563Z,8.05
2019-04-30T12:34:43.729Z,8.55
2019-04-30T12:36:45.957Z,9.13
2019-04-30T12:38:48.205Z,11.50
2019-04-30T12:40:50.269Z,9.85
2019-04-30T12:42:52.742Z,7.03
2019-04-30T12:46:58.636Z,8.13
2019-04-30T12:49:11.412Z,8.58
2019-04-30T12:53:58.543Z,8.08
2019-04-30T12:56:10.968Z,9.38
2019-04-30T12:58:14.200Z,13.50
2019-04-30T13:00:19.907Z,9.23
2019-04-30T13:02:22.175Z,6.62
2019-04-30T13:04:24.286Z,8.10
2019-04-30T13:06:26.836Z,9.43
2019-04-30T13:08:30.071Z,9.05
2019-04-30T13:10:33.116Z,8.93
2019-04-30T13:12:36.181Z,9.55
2019-04-30T13:14:51.061Z,8.83
2019-04-30T13:16:43.167Z,10.85
2019-04-30T13:18:45.514Z,8.53
2019-04-30T13:20:48.990Z,8.30
2019-04-30T13:22:51.464Z,9.63
2019-04-30T13:24:53.699Z,9.58
2019-04-30T13:26:55.909Z,7.53
2019-04-30T13:29:02.847Z,11.90
2019-04-30T13:31:05.247Z,9.10
2019-04-30T13:33:20.447Z,8.03
2019-04-30T13:35:22.633Z,9.30
2019-04-30T13:37:26.103Z,9.85
2019-04-30T13:39:47.529Z,6.53
2019-04-30T13:42:14.573Z,8.70
2019-04-30T13:44:09.745Z,8.08
2019-04-30T13:46:12.428Z,9.48
2019-04-30T13:50:18.991Z,8.63
2019-04-30T13:52:20.558Z,11.20
2019-04-30T13:54:22.754Z,7.58
2019-04-30T13:56:25.116Z,8.40
2019-04-30T14:00:29.844Z,7.90
2019-04-30T14:02:35.250Z,11.35
2019-04-30T14:05:03.075Z,8.48
2019-04-30T14:07:17.710Z,9.45
2019-04-30T14:09:24.606Z,9.18
2019-04-30T14:11:26.832Z,7.28
2019-04-30T14:13:28.930Z,8.38
2019-04-30T14:15:31.206Z,9.50
2019-04-30T14:17:33.205Z,7.90
2019-04-30T14:19:35.418Z,7.60
2019-04-30T14:21:39.148Z,10.13
2019-04-30T14:23:41.457Z,11.68
2019-04-30T14:25:55.354Z,6.83
2019-04-30T14:27:52.159Z,8.55
2019-04-30T14:29:52.971Z,7.55
2019-04-30T14:33:59.204Z,8.28
2019-04-30T14:36:01.422Z,12.47
2019-04-30T14:38:05.275Z,8.90
2019-04-30T14:40:12.205Z,12.43
2019-04-30T14:42:13.267Z,7.70
2019-04-30T14:44:20.504Z,9.58
2019-04-30T14:46:43.316Z,12.90
2019-04-30T14:48:51.001Z,9.25
2019-04-30T14:50:53.872Z,8.93
2019-04-30T14:53:21.214Z,9.80
2019-04-30T14:55:40.757Z,9.40
2019-04-30T14:58:09.695Z,9.45
2019-04-30T15:00:31.969Z,10.25
2019-04-30T15:02:38.043Z,11.65
2019-04-30T15:04:40.306Z,11.60
2019-04-30T15:06:42.401Z,12.73
2019-04-30T15:08:44.544Z,11.10
2019-04-30T15:10:46.559Z,7.97
2019-04-30T15:12:48.575Z,11.95
2019-04-30T15:14:50.934Z,9.90
2019-04-30T15:16:53.240Z,12.07
2019-04-30T15:18:55.476Z,10.23
2019-04-30T15:20:59.441Z,9.80
2019-04-30T15:23:21.852Z,12.60
2019-04-30T15:25:24.207Z,10.53
2019-04-30T15:27:26.440Z,10.75
2019-04-30T15:29:29.091Z,10.38
2019-04-30T15:31:31.206Z,9.75
2019-04-30T15:33:46.798Z,11.93
2019-04-30T15:35:50.329Z,9.58
2019-04-30T15:37:54.741Z,13.60
2019-04-30T15:39:59.040Z,10.78
2019-04-30T15:42:01.257Z,11.57
2019-04-30T15:44:03.653Z,14.28
2019-04-30T15:46:06.712Z,13.60
2019-04-30T15:48:08.762Z,14.13
2019-04-30T15:50:11.457Z,15.00
2019-04-30T15:52:13.833Z,11.78
2019-04-30T15:54:15.869Z,12.80
2019-04-30T15:56:19.282Z,14.15
2019-04-30T15:58:24.924Z,13.22
2019-04-30T16:00:29.277Z,15.03
2019-04-30T16:02:56.541Z,15.80
2019-04-30T16:05:10.493Z,19.12
2019-04-30T16:07:12.711Z,17.75
2019-04-30T16:09:20.505Z,13.65
2019-04-30T16:11:51.310Z,14.35
2019-04-30T16:14:18.787Z,14.38
2019-04-30T16:16:22.622Z,14.70
2019-04-30T16:18:30.187Z,13.45
2019-04-30T16:20:32.322Z,13.60
2019-04-30T16:22:34.345Z,13.58
2019-04-30T16:24:38.552Z,13.30
2019-04-30T16:26:49.010Z,13.85
2019-04-30T16:28:44.884Z,13.75
2019-04-30T16:30:47.428Z,16.07
2019-04-30T16:32:50.720Z,13.43
2019-04-30T16:34:52.978Z,13.88
2019-04-30T16:36:55.552Z,13.85
2019-04-30T16:38:58.645Z,15.58
2019-04-30T16:41:01.173Z,12.35
2019-04-30T16:45:06.016Z,11.88
2019-04-30T16:47:14.488Z,14.30
2019-04-30T16:49:13.520Z,12.73
2019-04-30T16:51:15.736Z,13.75
2019-04-30T16:53:17.816Z,14.23
2019-04-30T16:55:20.044Z,12.28
2019-04-30T16:57:22.211Z,10.95
2019-04-30T16:59:30.583Z,11.00
2019-04-30T17:01:34.555Z,12.47
2019-04-30T17:03:40.772Z,12.68
2019-04-30T17:05:51.879Z,12.35
2019-04-30T17:08:22.901Z,10.98
2019-04-30T17:10:47.222Z,12.07
2019-04-30T17:12:59.466Z,11.15
2019-04-30T17:15:19.973Z,10.48
2019-04-30T17:17:22.045Z,11.73
2019-04-30T17:19:24.191Z,10.32
2019-04-30T17:21:26.383Z,8.90
2019-04-30T17:23:29.311Z,8.88
2019-04-30T17:25:31.462Z,7.62
2019-04-30T17:27:33.687Z,10.03
2019-04-30T17:29:35.772Z,9.38
2019-04-30T17:31:38.099Z,8.43
2019-04-30T17:33:40.289Z,13.48
2019-04-30T17:35:42.320Z,8.58
2019-04-30T17:37:44.411Z,11.43
2019-04-30T17:39:46.863Z,8.28
2019-04-30T17:41:49.112Z,10.85
2019-04-30T17:43:51.184Z,10.55
2019-04-30T17:45:53.587Z,12.35
2019-04-30T17:49:58.917Z,10.98
2019-04-30T17:52:01.184Z,8.70
2019-04-30T17:54:12.574Z,8.60
2019-04-30T17:56:16.083Z,9.13
2019-04-30T17:58:20.616Z,9.53
2019-04-30T18:00:22.677Z,6.05
2019-04-30T18:02:27.194Z,12.35
2019-04-30T18:04:29.834Z,9.05
2019-04-30T18:06:31.896Z,9.30
2019-04-30T18:08:34.045Z,9.43
2019-04-30T18:10:36.554Z,7.28
2019-04-30T18:12:39.224Z,10.00
2019-04-30T18:14:41.478Z,14.38
2019-04-30T18:16:44.266Z,9.80
2019-04-30T18:18:54.811Z,13.48
2019-04-30T18:21:11.241Z,8.38
2019-04-30T18:23:29.658Z,10.58
2019-04-30T18:25:39.000Z,11.18
2019-04-30T18:27:49.479Z,9.70
2019-04-30T18:29:51.789Z,10.38
2019-04-30T18:31:53.876Z,10.05
2019-04-30T18:33:55.892Z,10.75
2019-04-30T18:35:59.700Z,9.75
2019-04-30T18:38:02.051Z,11.28
2019-04-30T18:40:05.409Z,10.23
2019-04-30T18:42:10.794Z,10.30
2019-04-30T18:44:12.118Z,10.53
2019-04-30T18:46:14.218Z,13.10
2019-04-30T18:48:16.539Z,8.28
2019-04-30T18:50:18.881Z,7.97
2019-04-30T18:52:21.304Z,12.98
2019-04-30T18:54:23.742Z,10.38
2019-04-30T18:58:39.619Z,8.48
2019-04-30T19:00:39.593Z,11.08
2019-04-30T19:02:41.931Z,11.50
2019-04-30T19:04:44.435Z,9.73
2019-04-30T19:09:06.707Z,12.45
2019-04-30T19:11:23.227Z,15.70
2019-04-30T19:13:38.518Z,14.85
2019-04-30T19:16:18.679Z,13.75
2019-04-30T19:18:21.876Z,14.45
2019-04-30T19:20:31.513Z,15.10
2019-04-30T19:22:33.696Z,18.15
2019-04-30T19:24:35.960Z,17.52
2019-04-30T19:26:38.859Z,15.40
2019-04-30T19:28:41.053Z,16.32
2019-04-30T19:30:54.947Z,14.75
2019-04-30T19:32:49.164Z,28.02
2019-04-30T19:34:51.465Z,21.37
2019-04-30T19:36:53.633Z,26.77
2019-04-30T19:38:56.009Z,21.77
2019-04-30T19:40:58.126Z,22.40
2019-04-30T19:43:00.166Z,22.55
2019-04-30T19:45:09.438Z,26.27
2019-04-30T19:47:06.818Z,24.50
2019-04-30T19:49:09.843Z,29.75
2019-04-30T19:51:12.593Z,26.57
2019-04-30T19:55:20.497Z,25.20
2019-04-30T19:57:22.333Z,32.20
2019-04-30T19:59:24.912Z,27.90
2019-04-30T20:01:28.693Z,30.60
2019-04-30T20:03:31.020Z,31.42
2019-04-30T20:05:33.015Z,32.70
2019-04-30T20:07:35.108Z,33.00
2019-04-30T20:09:37.415Z,34.27
2019-04-30T20:11:39.830Z,38.78
2019-04-30T20:13:43.519Z,37.33
2019-04-30T20:15:45.849Z,36.42
2019-04-30T20:17:49.416Z,38.15
2019-04-30T20:19:51.779Z,36.75
2019-04-30T20:21:56.640Z,36.60
2019-04-30T20:23:58.788Z,38.28
2019-04-30T20:26:00.828Z,38.40
2019-04-30T20:28:03.275Z,41.68
2019-04-30T20:32:08.678Z,38.20
2019-04-30T20:34:11.471Z,37.20
2019-04-30T20:36:13.605Z,34.30
2019-04-30T20:38:28.337Z,33.67
2019-04-30T20:40:43.070Z,37.60
2019-04-30T20:42:35.886Z,37.28
2019-04-30T20:44:38.970Z,36.38
2019-04-30T20:46:41.466Z,40.30
2019-04-30T20:48:43.600Z,35.28
2019-04-30T20:50:45.587Z,33.35
2019-04-30T20:52:49.063Z,35.75
2019-04-30T20:54:51.070Z,35.45
2019-04-30T20:56:55.842Z,38.38
2019-04-30T20:59:03.876Z,36.58
2019-04-30T21:01:06.383Z,35.80
2019-04-30T21:03:06.731Z,32.33
2019-04-30T21:05:08.983Z,28.32
2019-04-30T21:07:10.977Z,31.82
2019-04-30T21:09:14.397Z,31.00
2019-04-30T21:11:16.949Z,28.67
2019-04-30T21:13:19.511Z,24.37
2019-04-30T21:15:21.571Z,24.55
2019-04-30T21:17:23.861Z,24.15
2019-04-30T21:19:25.908Z,18.35
2019-04-30T21:21:28.773Z,23.07
2019-04-30T21:23:31.178Z,20.70
2019-04-30T21:25:33.172Z,21.90
2019-04-30T21:27:35.224Z,21.82
2019-04-30T21:29:39.146Z,26.93
2019-04-30T21:33:45.114Z,24.23
2019-04-30T21:35:50.963Z,23.57
2019-04-30T21:37:53.613Z,16.57
2019-04-30T21:39:55.825Z,18.48
2019-04-30T21:41:59.428Z,16.95
2019-04-30T21:44:01.840Z,20.10
2019-04-30T21:46:03.889Z,15.00
2019-04-30T21:48:06.190Z,17.07
2019-04-30T21:50:10.234Z,16.40
2019-04-30T21:52:12.477Z,17.17
2019-04-30T21:54:15.207Z,19.30
2019-04-30T21:56:17.320Z,20.00
2019-04-30T21:58:20.370Z,19.77
2019-04-30T22:00:51.906Z,16.10
2019-04-30T22:02:54.903Z,18.37
2019-04-30T22:04:57.089Z,17.60
2019-04-30T22:06:59.591Z,18.67
2019-04-30T22:09:04.447Z,22.85
2019-04-30T22:11:09.776Z,25.85
2019-04-30T22:13:12.270Z,20.55
2019-04-30T22:15:14.481Z,22.62
2019-04-30T22:17:16.434Z,30.35
2019-04-30T22:19:18.764Z,26.93
2019-04-30T22:23:22.505Z,26.87
2019-04-30T22:25:25.869Z,30.20
2019-04-30T22:27:27.906Z,28.38
2019-04-30T22:29:39.078Z,34.63
2019-04-30T22:31:34.211Z,28.87
2019-04-30T22:33:36.442Z,33.08
2019-04-30T22:35:51.442Z,30.32
2019-04-30T22:37:55.985Z,30.10
2019-04-30T22:40:02.237Z,35.43
2019-04-30T22:42:34.308Z,31.30
2019-04-30T22:44:36.695Z,34.45
2019-04-30T22:46:39.382Z,31.87
2019-04-30T22:48:41.555Z,29.50
2019-04-30T22:50:43.997Z,32.90
2019-04-30T22:54:47.968Z,30.00
2019-04-30T22:56:50.268Z,29.25
2019-04-30T22:58:53.487Z,30.35
2019-04-30T23:01:05.665Z,29.10
2019-04-30T23:03:10.759Z,26.95
2019-04-30T23:05:16.310Z,16.97
2019-04-30T23:07:19.572Z,22.75
2019-04-30T23:09:22.065Z,25.02
2019-04-30T23:13:26.930Z,23.25
2019-04-30T23:15:29.940Z,26.97
2019-04-30T23:17:32.608Z,28.27
2019-04-30T23:19:35.493Z,30.45
2019-04-30T23:21:39.181Z,27.75
2019-04-30T23:25:43.297Z,28.90
2019-04-30T23:27:46.037Z,28.10
2019-04-30T23:29:48.437Z,29.12
2019-04-30T23:31:52.035Z,28.15
2019-04-30T23:33:54.659Z,27.75
2019-04-30T23:35:56.677Z,30.97
2019-04-30T23:37:58.800Z,30.65
2019-04-30T23:40:29.746Z,33.98
2019-04-30T23:42:31.771Z,33.53
2019-04-30T23:44:33.870Z,28.15
2019-04-30T23:46:36.369Z,35.63
2019-04-30T23:50:40.133Z,33.95
2019-04-30T23:52:42.404Z,28.83
2019-04-30T23:54:45.393Z,37.45
2019-04-30T23:56:47.602Z,31.23
2019-04-30T23:58:50.633Z,35.48
